createdAt,value
2022-09-12T00:06:22.608Z,45.92
2022-09-12T00:16:24.564Z,45.86
2022-09-12T00:26:25.924Z,45.87
2022-09-12T00:36:27.129Z,45.80
2022-09-12T00:46:28.399Z,45.53
2022-09-12T00:56:29.661Z,45.70
2022-09-12T01:06:30.889Z,45.18
2022-09-12T01:16:32.167Z,45.22
2022-09-12T01:26:33.395Z,45.03
2022-09-12T01:36:34.700Z,44.89
2022-09-12T01:46:35.956Z,44.81
2022-09-12T01:56:37.179Z,44.88
2022-09-12T02:06:38.393Z,44.86
2022-09-12T02:16:39.685Z,44.70
2022-09-12T02:26:41.025Z,44.90
2022-09-12T02:36:42.260Z,44.87
2022-09-12T02:46:43.535Z,44.59
2022-09-12T02:56:44.747Z,44.47
2022-09-12T03:06:45.972Z,44.34
2022-09-12T03:16:47.272Z,44.50
2022-09-12T03:26:48.546Z,44.62
2022-09-12T03:36:49.779Z,44.42
2022-09-12T03:46:51.011Z,44.23
2022-09-12T03:56:52.226Z,44.41
2022-09-12T04:06:53.454Z,44.31
2022-09-12T04:16:54.716Z,44.52
2022-09-12T04:26:56.000Z,44.12
2022-09-12T04:36:57.235Z,45.42
2022-09-12T04:46:58.481Z,45.92
2022-09-12T04:56:59.708Z,46.06
2022-09-12T05:07:00.955Z,46.19
2022-09-12T05:17:02.340Z,46.82
2022-09-12T05:27:03.643Z,46.82
2022-09-12T05:37:04.888Z,46.46
2022-09-12T05:47:06.229Z,46.49
2022-09-12T05:57:07.546Z,46.71
2022-09-12T06:07:08.782Z,46.88
2022-09-12T06:17:10.035Z,47.21
2022-09-12T06:27:11.261Z,47.27
2022-09-12T06:37:12.625Z,47.24
2022-09-12T06:47:14.000Z,47.57
2022-09-12T06:57:15.264Z,48.37
2022-09-12T07:07:16.667Z,49.50
2022-09-12T07:17:19.131Z,49.80
2022-09-12T07:27:20.367Z,50.27
2022-09-12T07:37:23.276Z,50.67
2022-09-12T07:47:31.119Z,50.03
2022-09-12T07:57:39.910Z,49.90
2022-09-12T08:07:47.992Z,50.40
2022-09-12T08:17:55.963Z,50.54
2022-09-12T08:28:03.957Z,50.89
2022-09-12T08:38:14.860Z,51.07
2022-09-12T08:48:22.919Z,51.40
2022-09-12T08:58:31.012Z,52.11
2022-09-12T09:08:41.158Z,52.40
2022-09-12T09:18:45.320Z,52.34
2022-09-12T09:28:55.719Z,52.81
2022-09-12T09:39:02.971Z,52.86
2022-09-12T09:49:10.953Z,53.04
2022-09-12T09:59:18.967Z,53.16
2022-09-12T10:09:26.914Z,52.91
2022-09-12T10:19:35.022Z,53.17
2022-09-12T10:29:43.991Z,53.14
2022-09-12T10:39:54.322Z,53.05
2022-09-12T10:50:01.969Z,53.09
2022-09-12T11:00:08.049Z,52.77
2022-09-12T11:10:16.988Z,53.12
2022-09-12T11:20:24.998Z,52.99
2022-09-12T11:30:34.049Z,52.81
2022-09-12T11:40:46.184Z,52.47
2022-09-12T11:50:51.127Z,52.48
2022-09-12T12:00:58.020Z,51.97
2022-09-12T12:11:06.041Z,51.94
2022-09-12T12:21:17.031Z,51.57
2022-09-12T12:31:25.048Z,51.48
2022-09-12T12:41:35.799Z,51.07
2022-09-12T12:51:37.257Z,51.11
2022-09-12T13:01:51.514Z,50.84
2022-09-12T13:11:56.122Z,50.63
2022-09-12T13:22:03.827Z,50.68
2022-09-12T13:32:13.022Z,50.19
2022-09-12T13:42:21.159Z,50.07
2022-09-12T13:52:28.730Z,49.71
2022-09-12T14:02:37.112Z,49.46
2022-09-12T14:12:44.859Z,48.97
2022-09-12T14:22:54.031Z,48.93
2022-09-12T14:33:01.994Z,48.50
2022-09-12T14:43:09.274Z,48.22
2022-09-12T14:53:19.347Z,48.19
2022-09-12T15:03:27.016Z,48.36
2022-09-12T15:13:34.997Z,48.10
2022-09-12T15:23:44.244Z,48.00
2022-09-12T15:33:53.418Z,47.70
2022-09-12T15:44:01.023Z,47.03
2022-09-12T15:54:08.006Z,47.03
2022-09-12T16:04:15.862Z,46.86
2022-09-12T16:14:24.009Z,46.50
2022-09-12T16:24:34.097Z,46.24
2022-09-12T16:34:42.054Z,46.07
2022-09-12T16:44:54.207Z,45.84
2022-09-12T16:54:59.114Z,45.92
2022-09-12T17:05:07.206Z,45.67
2022-09-12T17:15:15.123Z,45.34
2022-09-12T17:25:23.032Z,45.53
2022-09-12T17:35:31.197Z,45.33
2022-09-12T17:45:39.201Z,45.39
2022-09-12T17:55:40.524Z,45.43
2022-09-12T18:05:41.842Z,45.20
2022-09-12T18:15:43.118Z,45.58
2022-09-12T18:25:44.407Z,45.62
2022-09-12T18:35:45.919Z,45.44
2022-09-12T18:45:47.213Z,46.01
2022-09-12T18:55:48.437Z,46.05
2022-09-12T19:05:49.761Z,46.49
2022-09-12T19:15:51.144Z,46.84
2022-09-12T19:25:52.525Z,46.61
2022-09-12T19:35:53.883Z,46.74
2022-09-12T19:45:55.244Z,47.02
2022-09-12T19:55:56.631Z,47.07
2022-09-12T20:05:57.888Z,47.16
2022-09-12T20:15:59.370Z,47.04
2022-09-12T20:26:00.798Z,47.18
2022-09-12T20:36:02.031Z,47.12
2022-09-12T20:46:03.336Z,47.32
2022-09-12T20:56:04.765Z,47.22
2022-09-12T21:06:06.114Z,47.21
2022-09-12T21:16:07.508Z,47.21
2022-09-12T21:26:08.833Z,47.40
2022-09-12T21:36:10.165Z,47.64
2022-09-12T21:46:11.462Z,47.61
2022-09-12T21:56:12.725Z,47.72
2022-09-12T22:06:14.005Z,47.87
2022-09-12T22:16:15.297Z,47.76
2022-09-12T22:26:16.630Z,47.82
2022-09-12T22:36:17.889Z,48.09
2022-09-12T22:46:19.202Z,47.81
2022-09-12T22:56:20.464Z,47.82
2022-09-12T23:06:21.720Z,47.73
2022-09-12T23:16:22.952Z,47.75
2022-09-12T23:26:24.215Z,47.62
2022-09-12T23:36:25.429Z,47.59
2022-09-12T23:46:26.668Z,47.29
2022-09-12T23:56:27.932Z,47.29
